<?xml version="1.0" encoding="UTF-8" standalone="no" ?>
<gpx xmlns="http://www.topografix.com/GPX/1/1" xmlns:xsi="http://www.w3.org/2001/XMLSchema-instance" xsi:schemaLocation="http://www.topografix.com/GPX/1/1 http://www.topografix.com/GPX/1/1/gpx.xsd" version="1.1" creator="VisuGPX - https://www.visugpx.com">
  <metadata>
    <name>Plomodiern/St Corentin</name>
    <desc><![CDATA[Départ parking de la Maison Communale pour ce circuit en grande partie inédit, et agréable même en cas de pluie. Circuit non balisé, proposant de beau panoramas sur le Porzay, et même un coin de la Baie de Douarnenez, et n'empruntant pas de rte très passante.
ch]]></desc>
  </metadata>
  <trk>
    <name><![CDATA[Plomodiern/St Corentin 10-NOV-16 04:54:34 PM]]></name>
    <trkseg>
      <trkpt lat="48.1818" lon="-4.23107">
        <ele>98.67</ele>
        <time>2016-11-10T12:58:33Z</time>
      </trkpt>
      <trkpt lat="48.18184" lon="-4.2311">
        <ele>99.15</ele>
        <time>2016-11-10T12:59:03Z</time>
      </trkpt>
      <trkpt lat="48.18186" lon="-4.23106">
        <ele>99.15</ele>
        <time>2016-11-10T12:59:33Z</time>
      </trkpt>
      <trkpt lat="48.18183" lon="-4.23108">
        <ele>99.63</ele>
        <time>2016-11-10T13:00:03Z</time>
      </trkpt>
      <trkpt lat="48.18183" lon="-4.23109">
        <ele>99.63</ele>
        <time>2016-11-10T13:00:33Z</time>
      </trkpt>
      <trkpt lat="48.18194" lon="-4.23123">
        <ele>99.15</ele>
        <time>2016-11-10T13:01:03Z</time>
      </trkpt>
      <trkpt lat="48.18219" lon="-4.2313">
        <ele>99.63</ele>
        <time>2016-11-10T13:01:33Z</time>
      </trkpt>
      <trkpt lat="48.18239" lon="-4.23092">
        <ele>96.75</ele>
        <time>2016-11-10T13:02:03Z</time>
      </trkpt>
      <trkpt lat="48.18249" lon="-4.23045">
        <ele>97.23</ele>
        <time>2016-11-10T13:02:33Z</time>
      </trkpt>
      <trkpt lat="48.18263" lon="-4.22997">
        <ele>96.27</ele>
        <time>2016-11-10T13:03:03Z</time>
      </trkpt>
      <trkpt lat="48.18269" lon="-4.22955">
        <ele>91.46</ele>
        <time>2016-11-10T13:03:33Z</time>
      </trkpt>
      <trkpt lat="48.1829" lon="-4.22929">
        <ele>97.23</ele>
        <time>2016-11-10T13:04:03Z</time>
      </trkpt>
      <trkpt lat="48.18308" lon="-4.22886">
        <ele>94.83</ele>
        <time>2016-11-10T13:04:33Z</time>
      </trkpt>
      <trkpt lat="48.18322" lon="-4.22838">
        <ele>90.98</ele>
        <time>2016-11-10T13:05:03Z</time>
      </trkpt>
      <trkpt lat="48.18337" lon="-4.22786">
        <ele>93.87</ele>
        <time>2016-11-10T13:05:33Z</time>
      </trkpt>
      <trkpt lat="48.18359" lon="-4.2274">
        <ele>95.79</ele>
        <time>2016-11-10T13:06:03Z</time>
      </trkpt>
      <trkpt lat="48.18381" lon="-4.22696">
        <ele>91.94</ele>
        <time>2016-11-10T13:06:33Z</time>
      </trkpt>
      <trkpt lat="48.18408" lon="-4.22658">
        <ele>90.02</ele>
        <time>2016-11-10T13:07:03Z</time>
      </trkpt>
      <trkpt lat="48.18437" lon="-4.22617">
        <ele>89.54</ele>
        <time>2016-11-10T13:07:33Z</time>
      </trkpt>
      <trkpt lat="48.18465" lon="-4.22581">
        <ele>91.46</ele>
        <time>2016-11-10T13:08:03Z</time>
      </trkpt>
      <trkpt lat="48.18493" lon="-4.22538">
        <ele>90.98</ele>
        <time>2016-11-10T13:08:33Z</time>
      </trkpt>
      <trkpt lat="48.18516" lon="-4.22492">
        <ele>90.02</ele>
        <time>2016-11-10T13:09:03Z</time>
      </trkpt>
      <trkpt lat="48.18527" lon="-4.22438">
        <ele>91.46</ele>
        <time>2016-11-10T13:09:33Z</time>
      </trkpt>
      <trkpt lat="48.18528" lon="-4.22382">
        <ele>90.02</ele>
        <time>2016-11-10T13:10:03Z</time>
      </trkpt>
      <trkpt lat="48.18534" lon="-4.22325">
        <ele>88.58</ele>
        <time>2016-11-10T13:10:33Z</time>
      </trkpt>
      <trkpt lat="48.1854" lon="-4.22268">
        <ele>87.62</ele>
        <time>2016-11-10T13:11:03Z</time>
      </trkpt>
      <trkpt lat="48.18545" lon="-4.22212">
        <ele>87.14</ele>
        <time>2016-11-10T13:11:33Z</time>
      </trkpt>
      <trkpt lat="48.18557" lon="-4.22158">
        <ele>84.73</ele>
        <time>2016-11-10T13:12:03Z</time>
      </trkpt>
      <trkpt lat="48.18581" lon="-4.22119">
        <ele>78</ele>
        <time>2016-11-10T13:12:33Z</time>
      </trkpt>
      <trkpt lat="48.18609" lon="-4.22084">
        <ele>74.64</ele>
        <time>2016-11-10T13:13:03Z</time>
      </trkpt>
      <trkpt lat="48.18631" lon="-4.22035">
        <ele>75.12</ele>
        <time>2016-11-10T13:13:33Z</time>
      </trkpt>
      <trkpt lat="48.18647" lon="-4.2199">
        <ele>75.6</ele>
        <time>2016-11-10T13:14:03Z</time>
      </trkpt>
      <trkpt lat="48.18663" lon="-4.21955">
        <ele>78</ele>
        <time>2016-11-10T13:14:33Z</time>
      </trkpt>
      <trkpt lat="48.18674" lon="-4.21908">
        <ele>82.81</ele>
        <time>2016-11-10T13:15:03Z</time>
      </trkpt>
      <trkpt lat="48.18683" lon="-4.21865">
        <ele>85.69</ele>
        <time>2016-11-10T13:15:33Z</time>
      </trkpt>
      <trkpt lat="48.18694" lon="-4.21819">
        <ele>88.58</ele>
        <time>2016-11-10T13:16:03Z</time>
      </trkpt>
      <trkpt lat="48.18709" lon="-4.21772">
        <ele>90.5</ele>
        <time>2016-11-10T13:16:33Z</time>
      </trkpt>
      <trkpt lat="48.18725" lon="-4.21727">
        <ele>92.9</ele>
        <time>2016-11-10T13:17:03Z</time>
      </trkpt>
      <trkpt lat="48.18741" lon="-4.2168">
        <ele>94.35</ele>
        <time>2016-11-10T13:17:33Z</time>
      </trkpt>
      <trkpt lat="48.18758" lon="-4.21634">
        <ele>94.35</ele>
        <time>2016-11-10T13:18:03Z</time>
      </trkpt>
      <trkpt lat="48.18776" lon="-4.21587">
        <ele>95.79</ele>
        <time>2016-11-10T13:18:33Z</time>
      </trkpt>
      <trkpt lat="48.1879" lon="-4.21535">
        <ele>95.79</ele>
        <time>2016-11-10T13:19:03Z</time>
      </trkpt>
      <trkpt lat="48.18791" lon="-4.21481">
        <ele>96.27</ele>
        <time>2016-11-10T13:19:33Z</time>
      </trkpt>
      <trkpt lat="48.18782" lon="-4.21426">
        <ele>94.35</ele>
        <time>2016-11-10T13:20:03Z</time>
      </trkpt>
      <trkpt lat="48.18777" lon="-4.21381">
        <ele>90.02</ele>
        <time>2016-11-10T13:20:33Z</time>
      </trkpt>
      <trkpt lat="48.18778" lon="-4.21328">
        <ele>87.14</ele>
        <time>2016-11-10T13:21:03Z</time>
      </trkpt>
      <trkpt lat="48.18783" lon="-4.21275">
        <ele>85.21</ele>
        <time>2016-11-10T13:21:33Z</time>
      </trkpt>
      <trkpt lat="48.1881" lon="-4.2126">
        <ele>83.29</ele>
        <time>2016-11-10T13:22:03Z</time>
      </trkpt>
      <trkpt lat="48.18844" lon="-4.21267">
        <ele>86.66</ele>
        <time>2016-11-10T13:22:33Z</time>
      </trkpt>
      <trkpt lat="48.18877" lon="-4.21271">
        <ele>89.06</ele>
        <time>2016-11-10T13:23:03Z</time>
      </trkpt>
      <trkpt lat="48.18902" lon="-4.21269">
        <ele>90.5</ele>
        <time>2016-11-10T13:23:33Z</time>
      </trkpt>
      <trkpt lat="48.18934" lon="-4.21265">
        <ele>91.94</ele>
        <time>2016-11-10T13:24:03Z</time>
      </trkpt>
      <trkpt lat="48.18971" lon="-4.21269">
        <ele>97.23</ele>
        <time>2016-11-10T13:24:33Z</time>
      </trkpt>
      <trkpt lat="48.18996" lon="-4.21285">
        <ele>101.08</ele>
        <time>2016-11-10T13:25:03Z</time>
      </trkpt>
      <trkpt lat="48.19026" lon="-4.21302">
        <ele>97.71</ele>
        <time>2016-11-10T13:25:33Z</time>
      </trkpt>
      <trkpt lat="48.19047" lon="-4.21338">
        <ele>93.87</ele>
        <time>2016-11-10T13:26:03Z</time>
      </trkpt>
      <trkpt lat="48.1906" lon="-4.2138">
        <ele>98.67</ele>
        <time>2016-11-10T13:26:33Z</time>
      </trkpt>
      <trkpt lat="48.19091" lon="-4.2139">
        <ele>100.11</ele>
        <time>2016-11-10T13:27:03Z</time>
      </trkpt>
      <trkpt lat="48.19121" lon="-4.21398">
        <ele>101.08</ele>
        <time>2016-11-10T13:27:33Z</time>
      </trkpt>
      <trkpt lat="48.19154" lon="-4.21408">
        <ele>104.92</ele>
        <time>2016-11-10T13:28:03Z</time>
      </trkpt>
      <trkpt lat="48.19183" lon="-4.21415">
        <ele>103.48</ele>
        <time>2016-11-10T13:28:33Z</time>
      </trkpt>
      <trkpt lat="48.19215" lon="-4.21422">
        <ele>98.67</ele>
        <time>2016-11-10T13:29:03Z</time>
      </trkpt>
      <trkpt lat="48.19247" lon="-4.21429">
        <ele>109.25</ele>
        <time>2016-11-10T13:29:33Z</time>
      </trkpt>
      <trkpt lat="48.19281" lon="-4.21439">
        <ele>116.46</ele>
        <time>2016-11-10T13:30:03Z</time>
      </trkpt>
      <trkpt lat="48.1931" lon="-4.21439">
        <ele>117.42</ele>
        <time>2016-11-10T13:30:33Z</time>
      </trkpt>
      <trkpt lat="48.1931" lon="-4.2144">
        <ele>117.9</ele>
        <time>2016-11-10T13:31:03Z</time>
      </trkpt>
      <trkpt lat="48.1931" lon="-4.21441">
        <ele>117.9</ele>
        <time>2016-11-10T13:31:33Z</time>
      </trkpt>
      <trkpt lat="48.1931" lon="-4.2144">
        <ele>118.38</ele>
        <time>2016-11-10T13:32:03Z</time>
      </trkpt>
      <trkpt lat="48.1931" lon="-4.21439">
        <ele>118.86</ele>
        <time>2016-11-10T13:32:33Z</time>
      </trkpt>
      <trkpt lat="48.1931" lon="-4.21439">
        <ele>118.86</ele>
        <time>2016-11-10T13:33:03Z</time>
      </trkpt>
      <trkpt lat="48.1931" lon="-4.21439">
        <ele>119.82</ele>
        <time>2016-11-10T13:33:33Z</time>
      </trkpt>
      <trkpt lat="48.19311" lon="-4.2144">
        <ele>119.82</ele>
        <time>2016-11-10T13:34:03Z</time>
      </trkpt>
      <trkpt lat="48.19317" lon="-4.21427">
        <ele>119.82</ele>
        <time>2016-11-10T13:34:33Z</time>
      </trkpt>
      <trkpt lat="48.19334" lon="-4.21381">
        <ele>119.82</ele>
        <time>2016-11-10T13:35:03Z</time>
      </trkpt>
      <trkpt lat="48.19353" lon="-4.21334">
        <ele>121.74</ele>
        <time>2016-11-10T13:35:33Z</time>
      </trkpt>
      <trkpt lat="48.19377" lon="-4.21298">
        <ele>122.71</ele>
        <time>2016-11-10T13:36:03Z</time>
      </trkpt>
      <trkpt lat="48.19408" lon="-4.21276">
        <ele>121.26</ele>
        <time>2016-11-10T13:36:33Z</time>
      </trkpt>
      <trkpt lat="48.19442" lon="-4.21262">
        <ele>124.15</ele>
        <time>2016-11-10T13:37:03Z</time>
      </trkpt>
      <trkpt lat="48.19444" lon="-4.21211">
        <ele>124.15</ele>
        <time>2016-11-10T13:37:33Z</time>
      </trkpt>
      <trkpt lat="48.19438" lon="-4.21161">
        <ele>119.82</ele>
        <time>2016-11-10T13:38:03Z</time>
      </trkpt>
      <trkpt lat="48.19433" lon="-4.21111">
        <ele>119.34</ele>
        <time>2016-11-10T13:38:33Z</time>
      </trkpt>
      <trkpt lat="48.19429" lon="-4.21063">
        <ele>124.15</ele>
        <time>2016-11-10T13:39:03Z</time>
      </trkpt>
      <trkpt lat="48.19422" lon="-4.21012">
        <ele>127.99</ele>
        <time>2016-11-10T13:39:33Z</time>
      </trkpt>
      <trkpt lat="48.1942" lon="-4.20963">
        <ele>132.8</ele>
        <time>2016-11-10T13:40:03Z</time>
      </trkpt>
      <trkpt lat="48.19419" lon="-4.20913">
        <ele>133.28</ele>
        <time>2016-11-10T13:40:33Z</time>
      </trkpt>
      <trkpt lat="48.1942" lon="-4.20866">
        <ele>129.43</ele>
        <time>2016-11-10T13:41:03Z</time>
      </trkpt>
      <trkpt lat="48.19419" lon="-4.20819">
        <ele>129.92</ele>
        <time>2016-11-10T13:41:33Z</time>
      </trkpt>
      <trkpt lat="48.19388" lon="-4.20796">
        <ele>127.99</ele>
        <time>2016-11-10T13:42:03Z</time>
      </trkpt>
      <trkpt lat="48.19354" lon="-4.20775">
        <ele>126.55</ele>
        <time>2016-11-10T13:42:33Z</time>
      </trkpt>
      <trkpt lat="48.19325" lon="-4.20774">
        <ele>123.19</ele>
        <time>2016-11-10T13:43:03Z</time>
      </trkpt>
      <trkpt lat="48.19283" lon="-4.20782">
        <ele>124.15</ele>
        <time>2016-11-10T13:43:33Z</time>
      </trkpt>
      <trkpt lat="48.19253" lon="-4.20789">
        <ele>114.53</ele>
        <time>2016-11-10T13:44:03Z</time>
      </trkpt>
      <trkpt lat="48.19251" lon="-4.20803">
        <ele>107.81</ele>
        <time>2016-11-10T13:44:33Z</time>
      </trkpt>
      <trkpt lat="48.19248" lon="-4.20836">
        <ele>101.08</ele>
        <time>2016-11-10T13:45:03Z</time>
      </trkpt>
      <trkpt lat="48.19248" lon="-4.20893">
        <ele>109.73</ele>
        <time>2016-11-10T13:45:33Z</time>
      </trkpt>
      <trkpt lat="48.19253" lon="-4.20936">
        <ele>107.81</ele>
        <time>2016-11-10T13:46:03Z</time>
      </trkpt>
      <trkpt lat="48.19262" lon="-4.2098">
        <ele>104.92</ele>
        <time>2016-11-10T13:46:33Z</time>
      </trkpt>
      <trkpt lat="48.19266" lon="-4.21033">
        <ele>104.92</ele>
        <time>2016-11-10T13:47:03Z</time>
      </trkpt>
      <trkpt lat="48.19262" lon="-4.21081">
        <ele>98.19</ele>
        <time>2016-11-10T13:47:33Z</time>
      </trkpt>
      <trkpt lat="48.19248" lon="-4.21113">
        <ele>81.85</ele>
        <time>2016-11-10T13:48:03Z</time>
      </trkpt>
      <trkpt lat="48.19252" lon="-4.21099">
        <ele>76.56</ele>
        <time>2016-11-10T13:48:33Z</time>
      </trkpt>
      <trkpt lat="48.19217" lon="-4.21055">
        <ele>83.29</ele>
        <time>2016-11-10T13:49:03Z</time>
      </trkpt>
      <trkpt lat="48.19176" lon="-4.21039">
        <ele>92.9</ele>
        <time>2016-11-10T13:49:33Z</time>
      </trkpt>
      <trkpt lat="48.19141" lon="-4.2103">
        <ele>88.1</ele>
        <time>2016-11-10T13:50:03Z</time>
      </trkpt>
      <trkpt lat="48.19107" lon="-4.21021">
        <ele>85.21</ele>
        <time>2016-11-10T13:50:33Z</time>
      </trkpt>
      <trkpt lat="48.19075" lon="-4.21014">
        <ele>81.37</ele>
        <time>2016-11-10T13:51:03Z</time>
      </trkpt>
      <trkpt lat="48.19042" lon="-4.21006">
        <ele>80.41</ele>
        <time>2016-11-10T13:51:33Z</time>
      </trkpt>
      <trkpt lat="48.19018" lon="-4.21019">
        <ele>79.93</ele>
        <time>2016-11-10T13:52:03Z</time>
      </trkpt>
      <trkpt lat="48.19006" lon="-4.21045">
        <ele>77.52</ele>
        <time>2016-11-10T13:52:33Z</time>
      </trkpt>
      <trkpt lat="48.18996" lon="-4.21065">
        <ele>77.52</ele>
        <time>2016-11-10T13:53:03Z</time>
      </trkpt>
      <trkpt lat="48.19005" lon="-4.21073">
        <ele>78.48</ele>
        <time>2016-11-10T13:53:33Z</time>
      </trkpt>
      <trkpt lat="48.19019" lon="-4.21088">
        <ele>78</ele>
        <time>2016-11-10T13:54:03Z</time>
      </trkpt>
      <trkpt lat="48.19011" lon="-4.21081">
        <ele>75.6</ele>
        <time>2016-11-10T13:54:33Z</time>
      </trkpt>
      <trkpt lat="48.19" lon="-4.21056">
        <ele>78.48</ele>
        <time>2016-11-10T13:55:03Z</time>
      </trkpt>
      <trkpt lat="48.18999" lon="-4.21051">
        <ele>80.41</ele>
        <time>2016-11-10T13:55:33Z</time>
      </trkpt>
      <trkpt lat="48.18997" lon="-4.21046">
        <ele>81.37</ele>
        <time>2016-11-10T13:56:03Z</time>
      </trkpt>
      <trkpt lat="48.18997" lon="-4.21045">
        <ele>82.33</ele>
        <time>2016-11-10T13:56:33Z</time>
      </trkpt>
      <trkpt lat="48.19002" lon="-4.21045">
        <ele>81.37</ele>
        <time>2016-11-10T13:57:03Z</time>
      </trkpt>
      <trkpt lat="48.19003" lon="-4.21045">
        <ele>81.37</ele>
        <time>2016-11-10T13:57:33Z</time>
      </trkpt>
      <trkpt lat="48.18997" lon="-4.21046">
        <ele>81.85</ele>
        <time>2016-11-10T13:58:03Z</time>
      </trkpt>
      <trkpt lat="48.18971" lon="-4.2107">
        <ele>73.68</ele>
        <time>2016-11-10T13:58:33Z</time>
      </trkpt>
      <trkpt lat="48.18966" lon="-4.21077">
        <ele>75.6</ele>
        <time>2016-11-10T13:59:03Z</time>
      </trkpt>
      <trkpt lat="48.18965" lon="-4.21078">
        <ele>76.08</ele>
        <time>2016-11-10T13:59:33Z</time>
      </trkpt>
      <trkpt lat="48.18964" lon="-4.21079">
        <ele>75.6</ele>
        <time>2016-11-10T14:00:03Z</time>
      </trkpt>
      <trkpt lat="48.18966" lon="-4.21079">
        <ele>75.6</ele>
        <time>2016-11-10T14:00:33Z</time>
      </trkpt>
      <trkpt lat="48.18966" lon="-4.21079">
        <ele>76.08</ele>
        <time>2016-11-10T14:01:03Z</time>
      </trkpt>
      <trkpt lat="48.18951" lon="-4.21061">
        <ele>74.16</ele>
        <time>2016-11-10T14:01:33Z</time>
      </trkpt>
      <trkpt lat="48.18937" lon="-4.21056">
        <ele>74.16</ele>
        <time>2016-11-10T14:02:03Z</time>
      </trkpt>
      <trkpt lat="48.18916" lon="-4.2105">
        <ele>72.24</ele>
        <time>2016-11-10T14:02:33Z</time>
      </trkpt>
      <trkpt lat="48.18879" lon="-4.21052">
        <ele>71.27</ele>
        <time>2016-11-10T14:03:03Z</time>
      </trkpt>
      <trkpt lat="48.18852" lon="-4.21077">
        <ele>73.68</ele>
        <time>2016-11-10T14:03:33Z</time>
      </trkpt>
      <trkpt lat="48.18821" lon="-4.21105">
        <ele>75.12</ele>
        <time>2016-11-10T14:04:03Z</time>
      </trkpt>
      <trkpt lat="48.18812" lon="-4.21126">
        <ele>76.08</ele>
        <time>2016-11-10T14:04:33Z</time>
      </trkpt>
      <trkpt lat="48.18808" lon="-4.21147">
        <ele>74.16</ele>
        <time>2016-11-10T14:05:03Z</time>
      </trkpt>
      <trkpt lat="48.18799" lon="-4.21187">
        <ele>77.52</ele>
        <time>2016-11-10T14:05:33Z</time>
      </trkpt>
      <trkpt lat="48.18788" lon="-4.21222">
        <ele>76.08</ele>
        <time>2016-11-10T14:06:03Z</time>
      </trkpt>
      <trkpt lat="48.18775" lon="-4.21246">
        <ele>79.45</ele>
        <time>2016-11-10T14:06:33Z</time>
      </trkpt>
      <trkpt lat="48.18743" lon="-4.2123">
        <ele>80.41</ele>
        <time>2016-11-10T14:07:03Z</time>
      </trkpt>
      <trkpt lat="48.18713" lon="-4.21212">
        <ele>76.08</ele>
        <time>2016-11-10T14:07:33Z</time>
      </trkpt>
      <trkpt lat="48.1868" lon="-4.21192">
        <ele>74.64</ele>
        <time>2016-11-10T14:08:03Z</time>
      </trkpt>
      <trkpt lat="48.18648" lon="-4.21174">
        <ele>71.27</ele>
        <time>2016-11-10T14:08:33Z</time>
      </trkpt>
      <trkpt lat="48.18619" lon="-4.21159">
        <ele>68.87</ele>
        <time>2016-11-10T14:09:03Z</time>
      </trkpt>
      <trkpt lat="48.18596" lon="-4.21144">
        <ele>65.51</ele>
        <time>2016-11-10T14:09:33Z</time>
      </trkpt>
      <trkpt lat="48.18576" lon="-4.21134">
        <ele>61.66</ele>
        <time>2016-11-10T14:10:03Z</time>
      </trkpt>
      <trkpt lat="48.18549" lon="-4.21119">
        <ele>59.26</ele>
        <time>2016-11-10T14:10:33Z</time>
      </trkpt>
      <trkpt lat="48.18518" lon="-4.211">
        <ele>56.37</ele>
        <time>2016-11-10T14:11:03Z</time>
      </trkpt>
      <trkpt lat="48.18486" lon="-4.21081">
        <ele>56.37</ele>
        <time>2016-11-10T14:11:33Z</time>
      </trkpt>
      <trkpt lat="48.18457" lon="-4.21061">
        <ele>48.68</ele>
        <time>2016-11-10T14:12:03Z</time>
      </trkpt>
      <trkpt lat="48.18422" lon="-4.21041">
        <ele>49.16</ele>
        <time>2016-11-10T14:12:33Z</time>
      </trkpt>
      <trkpt lat="48.18393" lon="-4.21057">
        <ele>47.72</ele>
        <time>2016-11-10T14:13:03Z</time>
      </trkpt>
      <trkpt lat="48.18369" lon="-4.21074">
        <ele>46.28</ele>
        <time>2016-11-10T14:13:33Z</time>
      </trkpt>
      <trkpt lat="48.1834" lon="-4.21094">
        <ele>44.36</ele>
        <time>2016-11-10T14:14:03Z</time>
      </trkpt>
      <trkpt lat="48.18308" lon="-4.21116">
        <ele>42.92</ele>
        <time>2016-11-10T14:14:33Z</time>
      </trkpt>
      <trkpt lat="48.18275" lon="-4.2114">
        <ele>40.99</ele>
        <time>2016-11-10T14:15:03Z</time>
      </trkpt>
      <trkpt lat="48.18243" lon="-4.21163">
        <ele>34.74</ele>
        <time>2016-11-10T14:15:33Z</time>
      </trkpt>
      <trkpt lat="48.18212" lon="-4.21184">
        <ele>34.26</ele>
        <time>2016-11-10T14:16:03Z</time>
      </trkpt>
      <trkpt lat="48.18185" lon="-4.21172">
        <ele>37.63</ele>
        <time>2016-11-10T14:16:33Z</time>
      </trkpt>
      <trkpt lat="48.18161" lon="-4.21136">
        <ele>40.99</ele>
        <time>2016-11-10T14:17:03Z</time>
      </trkpt>
      <trkpt lat="48.18128" lon="-4.21146">
        <ele>37.63</ele>
        <time>2016-11-10T14:17:33Z</time>
      </trkpt>
      <trkpt lat="48.18098" lon="-4.2116">
        <ele>41.95</ele>
        <time>2016-11-10T14:18:03Z</time>
      </trkpt>
      <trkpt lat="48.18068" lon="-4.21165">
        <ele>45.8</ele>
        <time>2016-11-10T14:18:33Z</time>
      </trkpt>
      <trkpt lat="48.18041" lon="-4.21163">
        <ele>50.13</ele>
        <time>2016-11-10T14:19:03Z</time>
      </trkpt>
      <trkpt lat="48.18019" lon="-4.21151">
        <ele>53.49</ele>
        <time>2016-11-10T14:19:33Z</time>
      </trkpt>
      <trkpt lat="48.17996" lon="-4.21144">
        <ele>56.37</ele>
        <time>2016-11-10T14:20:03Z</time>
      </trkpt>
      <trkpt lat="48.1799" lon="-4.21109">
        <ele>61.18</ele>
        <time>2016-11-10T14:20:33Z</time>
      </trkpt>
      <trkpt lat="48.18001" lon="-4.2107">
        <ele>65.51</ele>
        <time>2016-11-10T14:21:03Z</time>
      </trkpt>
      <trkpt lat="48.18006" lon="-4.21039">
        <ele>69.35</ele>
        <time>2016-11-10T14:21:33Z</time>
      </trkpt>
      <trkpt lat="48.17985" lon="-4.21057">
        <ele>74.16</ele>
        <time>2016-11-10T14:22:03Z</time>
      </trkpt>
      <trkpt lat="48.17982" lon="-4.21069">
        <ele>71.76</ele>
        <time>2016-11-10T14:22:33Z</time>
      </trkpt>
      <trkpt lat="48.17966" lon="-4.21097">
        <ele>69.83</ele>
        <time>2016-11-10T14:23:03Z</time>
      </trkpt>
      <trkpt lat="48.17937" lon="-4.21113">
        <ele>70.79</ele>
        <time>2016-11-10T14:23:33Z</time>
      </trkpt>
      <trkpt lat="48.17908" lon="-4.21104">
        <ele>73.2</ele>
        <time>2016-11-10T14:24:03Z</time>
      </trkpt>
      <trkpt lat="48.17873" lon="-4.21094">
        <ele>74.64</ele>
        <time>2016-11-10T14:24:33Z</time>
      </trkpt>
      <trkpt lat="48.17841" lon="-4.21081">
        <ele>76.08</ele>
        <time>2016-11-10T14:25:03Z</time>
      </trkpt>
      <trkpt lat="48.17808" lon="-4.21067">
        <ele>74.64</ele>
        <time>2016-11-10T14:25:33Z</time>
      </trkpt>
      <trkpt lat="48.17774" lon="-4.21058">
        <ele>71.76</ele>
        <time>2016-11-10T14:26:03Z</time>
      </trkpt>
      <trkpt lat="48.17737" lon="-4.21052">
        <ele>68.39</ele>
        <time>2016-11-10T14:26:33Z</time>
      </trkpt>
      <trkpt lat="48.17702" lon="-4.21053">
        <ele>68.87</ele>
        <time>2016-11-10T14:27:03Z</time>
      </trkpt>
      <trkpt lat="48.17666" lon="-4.21063">
        <ele>64.55</ele>
        <time>2016-11-10T14:27:33Z</time>
      </trkpt>
      <trkpt lat="48.17631" lon="-4.21078">
        <ele>62.14</ele>
        <time>2016-11-10T14:28:03Z</time>
      </trkpt>
      <trkpt lat="48.17598" lon="-4.21094">
        <ele>58.78</ele>
        <time>2016-11-10T14:28:33Z</time>
      </trkpt>
      <trkpt lat="48.17564" lon="-4.2111">
        <ele>56.86</ele>
        <time>2016-11-10T14:29:03Z</time>
      </trkpt>
      <trkpt lat="48.1753" lon="-4.21116">
        <ele>52.05</ele>
        <time>2016-11-10T14:29:33Z</time>
      </trkpt>
      <trkpt lat="48.17495" lon="-4.21119">
        <ele>50.13</ele>
        <time>2016-11-10T14:30:03Z</time>
      </trkpt>
      <trkpt lat="48.1746" lon="-4.21119">
        <ele>47.24</ele>
        <time>2016-11-10T14:30:33Z</time>
      </trkpt>
      <trkpt lat="48.17426" lon="-4.21105">
        <ele>43.4</ele>
        <time>2016-11-10T14:31:03Z</time>
      </trkpt>
      <trkpt lat="48.17399" lon="-4.21081">
        <ele>39.07</ele>
        <time>2016-11-10T14:31:33Z</time>
      </trkpt>
      <trkpt lat="48.17368" lon="-4.21094">
        <ele>40.51</ele>
        <time>2016-11-10T14:32:03Z</time>
      </trkpt>
      <trkpt lat="48.17343" lon="-4.21134">
        <ele>38.11</ele>
        <time>2016-11-10T14:32:33Z</time>
      </trkpt>
      <trkpt lat="48.17318" lon="-4.2117">
        <ele>39.07</ele>
        <time>2016-11-10T14:33:03Z</time>
      </trkpt>
      <trkpt lat="48.17292" lon="-4.21195">
        <ele>36.67</ele>
        <time>2016-11-10T14:33:33Z</time>
      </trkpt>
      <trkpt lat="48.1726" lon="-4.21228">
        <ele>35.23</ele>
        <time>2016-11-10T14:34:03Z</time>
      </trkpt>
      <trkpt lat="48.1723" lon="-4.21255">
        <ele>34.26</ele>
        <time>2016-11-10T14:34:33Z</time>
      </trkpt>
      <trkpt lat="48.17198" lon="-4.21283">
        <ele>34.74</ele>
        <time>2016-11-10T14:35:03Z</time>
      </trkpt>
      <trkpt lat="48.17165" lon="-4.2131">
        <ele>33.3</ele>
        <time>2016-11-10T14:35:33Z</time>
      </trkpt>
      <trkpt lat="48.17138" lon="-4.2133">
        <ele>28.98</ele>
        <time>2016-11-10T14:36:03Z</time>
      </trkpt>
      <trkpt lat="48.17106" lon="-4.2135">
        <ele>29.94</ele>
        <time>2016-11-10T14:36:33Z</time>
      </trkpt>
      <trkpt lat="48.17073" lon="-4.21377">
        <ele>30.42</ele>
        <time>2016-11-10T14:37:03Z</time>
      </trkpt>
      <trkpt lat="48.17041" lon="-4.21399">
        <ele>24.65</ele>
        <time>2016-11-10T14:37:33Z</time>
      </trkpt>
      <trkpt lat="48.17008" lon="-4.2142">
        <ele>23.21</ele>
        <time>2016-11-10T14:38:03Z</time>
      </trkpt>
      <trkpt lat="48.16986" lon="-4.21442">
        <ele>23.21</ele>
        <time>2016-11-10T14:38:33Z</time>
      </trkpt>
      <trkpt lat="48.16985" lon="-4.21442">
        <ele>24.17</ele>
        <time>2016-11-10T14:39:03Z</time>
      </trkpt>
      <trkpt lat="48.16985" lon="-4.21442">
        <ele>24.65</ele>
        <time>2016-11-10T14:39:33Z</time>
      </trkpt>
      <trkpt lat="48.1696" lon="-4.2147">
        <ele>24.17</ele>
        <time>2016-11-10T14:40:03Z</time>
      </trkpt>
      <trkpt lat="48.1695" lon="-4.21517">
        <ele>25.61</ele>
        <time>2016-11-10T14:40:33Z</time>
      </trkpt>
      <trkpt lat="48.16947" lon="-4.21567">
        <ele>28.02</ele>
        <time>2016-11-10T14:41:03Z</time>
      </trkpt>
      <trkpt lat="48.1697" lon="-4.21605">
        <ele>28.02</ele>
        <time>2016-11-10T14:41:33Z</time>
      </trkpt>
      <trkpt lat="48.16997" lon="-4.21638">
        <ele>26.57</ele>
        <time>2016-11-10T14:42:03Z</time>
      </trkpt>
      <trkpt lat="48.17023" lon="-4.21674">
        <ele>25.13</ele>
        <time>2016-11-10T14:42:33Z</time>
      </trkpt>
      <trkpt lat="48.17047" lon="-4.21711">
        <ele>24.65</ele>
        <time>2016-11-10T14:43:03Z</time>
      </trkpt>
      <trkpt lat="48.17072" lon="-4.21738">
        <ele>21.77</ele>
        <time>2016-11-10T14:43:33Z</time>
      </trkpt>
      <trkpt lat="48.17107" lon="-4.21758">
        <ele>23.21</ele>
        <time>2016-11-10T14:44:03Z</time>
      </trkpt>
      <trkpt lat="48.17126" lon="-4.21781">
        <ele>20.81</ele>
        <time>2016-11-10T14:44:33Z</time>
      </trkpt>
      <trkpt lat="48.17152" lon="-4.21815">
        <ele>19.84</ele>
        <time>2016-11-10T14:45:03Z</time>
      </trkpt>
      <trkpt lat="48.17171" lon="-4.21855">
        <ele>17.44</ele>
        <time>2016-11-10T14:45:33Z</time>
      </trkpt>
      <trkpt lat="48.17191" lon="-4.21895">
        <ele>24.65</ele>
        <time>2016-11-10T14:46:03Z</time>
      </trkpt>
      <trkpt lat="48.17196" lon="-4.21946">
        <ele>24.17</ele>
        <time>2016-11-10T14:46:33Z</time>
      </trkpt>
      <trkpt lat="48.17195" lon="-4.21992">
        <ele>18.4</ele>
        <time>2016-11-10T14:47:03Z</time>
      </trkpt>
      <trkpt lat="48.17174" lon="-4.22048">
        <ele>16.48</ele>
        <time>2016-11-10T14:47:33Z</time>
      </trkpt>
      <trkpt lat="48.17148" lon="-4.22089">
        <ele>14.56</ele>
        <time>2016-11-10T14:48:03Z</time>
      </trkpt>
      <trkpt lat="48.17121" lon="-4.22134">
        <ele>21.29</ele>
        <time>2016-11-10T14:48:33Z</time>
      </trkpt>
      <trkpt lat="48.17101" lon="-4.2217">
        <ele>19.36</ele>
        <time>2016-11-10T14:49:03Z</time>
      </trkpt>
      <trkpt lat="48.17074" lon="-4.22217">
        <ele>20.81</ele>
        <time>2016-11-10T14:49:33Z</time>
      </trkpt>
      <trkpt lat="48.17046" lon="-4.22263">
        <ele>23.69</ele>
        <time>2016-11-10T14:50:03Z</time>
      </trkpt>
      <trkpt lat="48.17022" lon="-4.22307">
        <ele>25.13</ele>
        <time>2016-11-10T14:50:33Z</time>
      </trkpt>
      <trkpt lat="48.17006" lon="-4.22356">
        <ele>22.73</ele>
        <time>2016-11-10T14:51:03Z</time>
      </trkpt>
      <trkpt lat="48.17002" lon="-4.22407">
        <ele>23.21</ele>
        <time>2016-11-10T14:51:33Z</time>
      </trkpt>
      <trkpt lat="48.16991" lon="-4.22458">
        <ele>23.69</ele>
        <time>2016-11-10T14:52:03Z</time>
      </trkpt>
      <trkpt lat="48.16969" lon="-4.225">
        <ele>22.25</ele>
        <time>2016-11-10T14:52:33Z</time>
      </trkpt>
      <trkpt lat="48.16939" lon="-4.22533">
        <ele>20.81</ele>
        <time>2016-11-10T14:53:03Z</time>
      </trkpt>
      <trkpt lat="48.16909" lon="-4.22574">
        <ele>24.17</ele>
        <time>2016-11-10T14:53:33Z</time>
      </trkpt>
      <trkpt lat="48.16895" lon="-4.22629">
        <ele>23.21</ele>
        <time>2016-11-10T14:54:03Z</time>
      </trkpt>
      <trkpt lat="48.1688" lon="-4.22689">
        <ele>26.09</ele>
        <time>2016-11-10T14:54:33Z</time>
      </trkpt>
      <trkpt lat="48.16868" lon="-4.22742">
        <ele>25.13</ele>
        <time>2016-11-10T14:55:03Z</time>
      </trkpt>
      <trkpt lat="48.16858" lon="-4.22788">
        <ele>25.61</ele>
        <time>2016-11-10T14:55:33Z</time>
      </trkpt>
      <trkpt lat="48.1685" lon="-4.22837">
        <ele>18.4</ele>
        <time>2016-11-10T14:56:03Z</time>
      </trkpt>
      <trkpt lat="48.16839" lon="-4.22902">
        <ele>22.73</ele>
        <time>2016-11-10T14:56:33Z</time>
      </trkpt>
      <trkpt lat="48.16837" lon="-4.22957">
        <ele>24.65</ele>
        <time>2016-11-10T14:57:03Z</time>
      </trkpt>
      <trkpt lat="48.16847" lon="-4.23013">
        <ele>23.69</ele>
        <time>2016-11-10T14:57:33Z</time>
      </trkpt>
      <trkpt lat="48.1685" lon="-4.23067">
        <ele>20.81</ele>
        <time>2016-11-10T14:58:03Z</time>
      </trkpt>
      <trkpt lat="48.16843" lon="-4.23122">
        <ele>21.29</ele>
        <time>2016-11-10T14:58:33Z</time>
      </trkpt>
      <trkpt lat="48.16844" lon="-4.23177">
        <ele>20.32</ele>
        <time>2016-11-10T14:59:03Z</time>
      </trkpt>
      <trkpt lat="48.16864" lon="-4.23212">
        <ele>16.96</ele>
        <time>2016-11-10T14:59:33Z</time>
      </trkpt>
      <trkpt lat="48.16891" lon="-4.23241">
        <ele>10.23</ele>
        <time>2016-11-10T15:00:03Z</time>
      </trkpt>
      <trkpt lat="48.16933" lon="-4.2325">
        <ele>11.19</ele>
        <time>2016-11-10T15:00:33Z</time>
      </trkpt>
      <trkpt lat="48.1697" lon="-4.23243">
        <ele>21.29</ele>
        <time>2016-11-10T15:01:03Z</time>
      </trkpt>
      <trkpt lat="48.16999" lon="-4.23216">
        <ele>18.4</ele>
        <time>2016-11-10T15:01:33Z</time>
      </trkpt>
      <trkpt lat="48.17024" lon="-4.23212">
        <ele>22.25</ele>
        <time>2016-11-10T15:02:03Z</time>
      </trkpt>
      <trkpt lat="48.17009" lon="-4.2323">
        <ele>23.21</ele>
        <time>2016-11-10T15:02:33Z</time>
      </trkpt>
      <trkpt lat="48.16996" lon="-4.23276">
        <ele>25.13</ele>
        <time>2016-11-10T15:03:03Z</time>
      </trkpt>
      <trkpt lat="48.1698" lon="-4.23319">
        <ele>26.09</ele>
        <time>2016-11-10T15:03:33Z</time>
      </trkpt>
      <trkpt lat="48.16979" lon="-4.23327">
        <ele>25.61</ele>
        <time>2016-11-10T15:04:03Z</time>
      </trkpt>
      <trkpt lat="48.16979" lon="-4.23312">
        <ele>22.25</ele>
        <time>2016-11-10T15:04:33Z</time>
      </trkpt>
      <trkpt lat="48.16981" lon="-4.23324">
        <ele>20.81</ele>
        <time>2016-11-10T15:05:03Z</time>
      </trkpt>
      <trkpt lat="48.16995" lon="-4.23349">
        <ele>24.65</ele>
        <time>2016-11-10T15:05:33Z</time>
      </trkpt>
      <trkpt lat="48.17019" lon="-4.23373">
        <ele>28.02</ele>
        <time>2016-11-10T15:06:03Z</time>
      </trkpt>
      <trkpt lat="48.17042" lon="-4.23398">
        <ele>30.42</ele>
        <time>2016-11-10T15:06:33Z</time>
      </trkpt>
      <trkpt lat="48.17067" lon="-4.23423">
        <ele>32.82</ele>
        <time>2016-11-10T15:07:03Z</time>
      </trkpt>
      <trkpt lat="48.17092" lon="-4.23446">
        <ele>34.74</ele>
        <time>2016-11-10T15:07:33Z</time>
      </trkpt>
      <trkpt lat="48.17118" lon="-4.23471">
        <ele>36.67</ele>
        <time>2016-11-10T15:08:03Z</time>
      </trkpt>
      <trkpt lat="48.17143" lon="-4.23497">
        <ele>39.07</ele>
        <time>2016-11-10T15:08:33Z</time>
      </trkpt>
      <trkpt lat="48.17165" lon="-4.23519">
        <ele>42.92</ele>
        <time>2016-11-10T15:09:03Z</time>
      </trkpt>
      <trkpt lat="48.17193" lon="-4.23546">
        <ele>46.28</ele>
        <time>2016-11-10T15:09:33Z</time>
      </trkpt>
      <trkpt lat="48.1722" lon="-4.23572">
        <ele>46.76</ele>
        <time>2016-11-10T15:10:03Z</time>
      </trkpt>
      <trkpt lat="48.17246" lon="-4.23598">
        <ele>48.68</ele>
        <time>2016-11-10T15:10:33Z</time>
      </trkpt>
      <trkpt lat="48.17269" lon="-4.23618">
        <ele>52.53</ele>
        <time>2016-11-10T15:11:03Z</time>
      </trkpt>
      <trkpt lat="48.17295" lon="-4.23644">
        <ele>52.53</ele>
        <time>2016-11-10T15:11:33Z</time>
      </trkpt>
      <trkpt lat="48.17323" lon="-4.23671">
        <ele>54.93</ele>
        <time>2016-11-10T15:12:03Z</time>
      </trkpt>
      <trkpt lat="48.17313" lon="-4.23713">
        <ele>58.3</ele>
        <time>2016-11-10T15:12:33Z</time>
      </trkpt>
      <trkpt lat="48.17299" lon="-4.23764">
        <ele>58.3</ele>
        <time>2016-11-10T15:13:03Z</time>
      </trkpt>
      <trkpt lat="48.17285" lon="-4.23816">
        <ele>56.86</ele>
        <time>2016-11-10T15:13:33Z</time>
      </trkpt>
      <trkpt lat="48.17269" lon="-4.23868">
        <ele>56.86</ele>
        <time>2016-11-10T15:14:03Z</time>
      </trkpt>
      <trkpt lat="48.17238" lon="-4.23876">
        <ele>53.01</ele>
        <time>2016-11-10T15:14:33Z</time>
      </trkpt>
      <trkpt lat="48.17203" lon="-4.23869">
        <ele>49.65</ele>
        <time>2016-11-10T15:15:03Z</time>
      </trkpt>
      <trkpt lat="48.17167" lon="-4.23864">
        <ele>44.36</ele>
        <time>2016-11-10T15:15:33Z</time>
      </trkpt>
      <trkpt lat="48.1713" lon="-4.23857">
        <ele>43.4</ele>
        <time>2016-11-10T15:16:03Z</time>
      </trkpt>
      <trkpt lat="48.17094" lon="-4.23851">
        <ele>40.51</ele>
        <time>2016-11-10T15:16:33Z</time>
      </trkpt>
      <trkpt lat="48.17082" lon="-4.23893">
        <ele>38.59</ele>
        <time>2016-11-10T15:17:03Z</time>
      </trkpt>
      <trkpt lat="48.17075" lon="-4.23947">
        <ele>40.99</ele>
        <time>2016-11-10T15:17:33Z</time>
      </trkpt>
      <trkpt lat="48.17074" lon="-4.2398">
        <ele>40.03</ele>
        <time>2016-11-10T15:18:03Z</time>
      </trkpt>
      <trkpt lat="48.17099" lon="-4.24008">
        <ele>39.07</ele>
        <time>2016-11-10T15:18:33Z</time>
      </trkpt>
      <trkpt lat="48.17139" lon="-4.24012">
        <ele>40.03</ele>
        <time>2016-11-10T15:19:03Z</time>
      </trkpt>
      <trkpt lat="48.17176" lon="-4.24023">
        <ele>37.15</ele>
        <time>2016-11-10T15:19:33Z</time>
      </trkpt>
      <trkpt lat="48.1721" lon="-4.24032">
        <ele>34.26</ele>
        <time>2016-11-10T15:20:03Z</time>
      </trkpt>
      <trkpt lat="48.17243" lon="-4.24054">
        <ele>36.19</ele>
        <time>2016-11-10T15:20:33Z</time>
      </trkpt>
      <trkpt lat="48.17273" lon="-4.2408">
        <ele>36.67</ele>
        <time>2016-11-10T15:21:03Z</time>
      </trkpt>
      <trkpt lat="48.17303" lon="-4.24104">
        <ele>34.26</ele>
        <time>2016-11-10T15:21:33Z</time>
      </trkpt>
      <trkpt lat="48.17332" lon="-4.24122">
        <ele>39.07</ele>
        <time>2016-11-10T15:22:03Z</time>
      </trkpt>
      <trkpt lat="48.17363" lon="-4.24127">
        <ele>41.47</ele>
        <time>2016-11-10T15:22:33Z</time>
      </trkpt>
      <trkpt lat="48.17397" lon="-4.24141">
        <ele>45.32</ele>
        <time>2016-11-10T15:23:03Z</time>
      </trkpt>
      <trkpt lat="48.17392" lon="-4.24186">
        <ele>43.88</ele>
        <time>2016-11-10T15:23:33Z</time>
      </trkpt>
      <trkpt lat="48.17384" lon="-4.24206">
        <ele>46.28</ele>
        <time>2016-11-10T15:24:03Z</time>
      </trkpt>
      <trkpt lat="48.17387" lon="-4.24243">
        <ele>45.8</ele>
        <time>2016-11-10T15:24:33Z</time>
      </trkpt>
      <trkpt lat="48.174" lon="-4.24282">
        <ele>47.24</ele>
        <time>2016-11-10T15:25:03Z</time>
      </trkpt>
      <trkpt lat="48.17387" lon="-4.24329">
        <ele>50.61</ele>
        <time>2016-11-10T15:25:33Z</time>
      </trkpt>
      <trkpt lat="48.17377" lon="-4.24373">
        <ele>52.53</ele>
        <time>2016-11-10T15:26:03Z</time>
      </trkpt>
      <trkpt lat="48.17365" lon="-4.24421">
        <ele>58.3</ele>
        <time>2016-11-10T15:26:33Z</time>
      </trkpt>
      <trkpt lat="48.17353" lon="-4.24464">
        <ele>60.7</ele>
        <time>2016-11-10T15:27:03Z</time>
      </trkpt>
      <trkpt lat="48.17344" lon="-4.2451">
        <ele>60.22</ele>
        <time>2016-11-10T15:27:33Z</time>
      </trkpt>
      <trkpt lat="48.17334" lon="-4.24561">
        <ele>62.62</ele>
        <time>2016-11-10T15:28:03Z</time>
      </trkpt>
      <trkpt lat="48.17366" lon="-4.24567">
        <ele>60.7</ele>
        <time>2016-11-10T15:28:33Z</time>
      </trkpt>
      <trkpt lat="48.17398" lon="-4.24583">
        <ele>60.22</ele>
        <time>2016-11-10T15:29:03Z</time>
      </trkpt>
      <trkpt lat="48.17433" lon="-4.24604">
        <ele>59.74</ele>
        <time>2016-11-10T15:29:33Z</time>
      </trkpt>
      <trkpt lat="48.17467" lon="-4.24625">
        <ele>58.78</ele>
        <time>2016-11-10T15:30:03Z</time>
      </trkpt>
      <trkpt lat="48.17498" lon="-4.24645">
        <ele>58.3</ele>
        <time>2016-11-10T15:30:33Z</time>
      </trkpt>
      <trkpt lat="48.17531" lon="-4.24666">
        <ele>57.34</ele>
        <time>2016-11-10T15:31:03Z</time>
      </trkpt>
      <trkpt lat="48.17565" lon="-4.24687">
        <ele>56.37</ele>
        <time>2016-11-10T15:31:33Z</time>
      </trkpt>
      <trkpt lat="48.17585" lon="-4.24677">
        <ele>56.86</ele>
        <time>2016-11-10T15:32:03Z</time>
      </trkpt>
      <trkpt lat="48.17606" lon="-4.24639">
        <ele>55.41</ele>
        <time>2016-11-10T15:32:33Z</time>
      </trkpt>
      <trkpt lat="48.17631" lon="-4.24598">
        <ele>56.37</ele>
        <time>2016-11-10T15:33:03Z</time>
      </trkpt>
      <trkpt lat="48.17654" lon="-4.24554">
        <ele>53.01</ele>
        <time>2016-11-10T15:33:33Z</time>
      </trkpt>
      <trkpt lat="48.17682" lon="-4.24512">
        <ele>56.37</ele>
        <time>2016-11-10T15:34:03Z</time>
      </trkpt>
      <trkpt lat="48.17705" lon="-4.24478">
        <ele>55.41</ele>
        <time>2016-11-10T15:34:33Z</time>
      </trkpt>
      <trkpt lat="48.17729" lon="-4.24444">
        <ele>53.49</ele>
        <time>2016-11-10T15:35:03Z</time>
      </trkpt>
      <trkpt lat="48.17754" lon="-4.24409">
        <ele>53.01</ele>
        <time>2016-11-10T15:35:33Z</time>
      </trkpt>
      <trkpt lat="48.17781" lon="-4.24369">
        <ele>57.34</ele>
        <time>2016-11-10T15:36:03Z</time>
      </trkpt>
      <trkpt lat="48.17806" lon="-4.24336">
        <ele>51.57</ele>
        <time>2016-11-10T15:36:33Z</time>
      </trkpt>
      <trkpt lat="48.1783" lon="-4.24305">
        <ele>54.93</ele>
        <time>2016-11-10T15:37:03Z</time>
      </trkpt>
      <trkpt lat="48.17851" lon="-4.24263">
        <ele>58.78</ele>
        <time>2016-11-10T15:37:33Z</time>
      </trkpt>
      <trkpt lat="48.17869" lon="-4.24212">
        <ele>65.03</ele>
        <time>2016-11-10T15:38:03Z</time>
      </trkpt>
      <trkpt lat="48.17871" lon="-4.24161">
        <ele>66.47</ele>
        <time>2016-11-10T15:38:33Z</time>
      </trkpt>
      <trkpt lat="48.17881" lon="-4.24106">
        <ele>68.87</ele>
        <time>2016-11-10T15:39:03Z</time>
      </trkpt>
      <trkpt lat="48.17887" lon="-4.24053">
        <ele>73.2</ele>
        <time>2016-11-10T15:39:33Z</time>
      </trkpt>
      <trkpt lat="48.17899" lon="-4.23999">
        <ele>71.76</ele>
        <time>2016-11-10T15:40:03Z</time>
      </trkpt>
      <trkpt lat="48.17899" lon="-4.23983">
        <ele>73.2</ele>
        <time>2016-11-10T15:40:33Z</time>
      </trkpt>
      <trkpt lat="48.179" lon="-4.23958">
        <ele>73.2</ele>
        <time>2016-11-10T15:41:03Z</time>
      </trkpt>
      <trkpt lat="48.17903" lon="-4.23908">
        <ele>71.27</ele>
        <time>2016-11-10T15:41:33Z</time>
      </trkpt>
      <trkpt lat="48.17903" lon="-4.23859">
        <ele>68.87</ele>
        <time>2016-11-10T15:42:03Z</time>
      </trkpt>
      <trkpt lat="48.17905" lon="-4.2381">
        <ele>69.83</ele>
        <time>2016-11-10T15:42:33Z</time>
      </trkpt>
      <trkpt lat="48.17905" lon="-4.23758">
        <ele>67.91</ele>
        <time>2016-11-10T15:43:03Z</time>
      </trkpt>
      <trkpt lat="48.1791" lon="-4.2371">
        <ele>61.18</ele>
        <time>2016-11-10T15:43:33Z</time>
      </trkpt>
      <trkpt lat="48.17912" lon="-4.23648">
        <ele>68.39</ele>
        <time>2016-11-10T15:44:03Z</time>
      </trkpt>
      <trkpt lat="48.17917" lon="-4.23591">
        <ele>72.24</ele>
        <time>2016-11-10T15:44:33Z</time>
      </trkpt>
      <trkpt lat="48.17921" lon="-4.23538">
        <ele>70.79</ele>
        <time>2016-11-10T15:45:03Z</time>
      </trkpt>
      <trkpt lat="48.17927" lon="-4.23492">
        <ele>63.58</ele>
        <time>2016-11-10T15:45:33Z</time>
      </trkpt>
      <trkpt lat="48.17933" lon="-4.23458">
        <ele>60.7</ele>
        <time>2016-11-10T15:46:03Z</time>
      </trkpt>
      <trkpt lat="48.17935" lon="-4.23406">
        <ele>71.27</ele>
        <time>2016-11-10T15:46:33Z</time>
      </trkpt>
      <trkpt lat="48.17928" lon="-4.23377">
        <ele>76.56</ele>
        <time>2016-11-10T15:47:03Z</time>
      </trkpt>
      <trkpt lat="48.1792" lon="-4.23336">
        <ele>71.27</ele>
        <time>2016-11-10T15:47:33Z</time>
      </trkpt>
      <trkpt lat="48.17929" lon="-4.2328">
        <ele>72.72</ele>
        <time>2016-11-10T15:48:03Z</time>
      </trkpt>
      <trkpt lat="48.17947" lon="-4.2324">
        <ele>72.72</ele>
        <time>2016-11-10T15:48:33Z</time>
      </trkpt>
      <trkpt lat="48.17964" lon="-4.23198">
        <ele>71.27</ele>
        <time>2016-11-10T15:49:03Z</time>
      </trkpt>
      <trkpt lat="48.17984" lon="-4.2317">
        <ele>76.56</ele>
        <time>2016-11-10T15:49:33Z</time>
      </trkpt>
      <trkpt lat="48.18014" lon="-4.23178">
        <ele>79.93</ele>
        <time>2016-11-10T15:50:03Z</time>
      </trkpt>
      <trkpt lat="48.1805" lon="-4.232">
        <ele>91.94</ele>
        <time>2016-11-10T15:50:33Z</time>
      </trkpt>
      <trkpt lat="48.1808" lon="-4.23217">
        <ele>90.02</ele>
        <time>2016-11-10T15:51:03Z</time>
      </trkpt>
      <trkpt lat="48.18109" lon="-4.23235">
        <ele>91.94</ele>
        <time>2016-11-10T15:51:33Z</time>
      </trkpt>
      <trkpt lat="48.18134" lon="-4.23252">
        <ele>91.94</ele>
        <time>2016-11-10T15:52:03Z</time>
      </trkpt>
      <trkpt lat="48.18158" lon="-4.23242">
        <ele>94.35</ele>
        <time>2016-11-10T15:52:33Z</time>
      </trkpt>
      <trkpt lat="48.18186" lon="-4.23202">
        <ele>96.75</ele>
        <time>2016-11-10T15:53:03Z</time>
      </trkpt>
      <trkpt lat="48.18207" lon="-4.23157">
        <ele>99.15</ele>
        <time>2016-11-10T15:53:33Z</time>
      </trkpt>
      <trkpt lat="48.1819" lon="-4.23119">
        <ele>98.19</ele>
        <time>2016-11-10T15:54:03Z</time>
      </trkpt>
      <trkpt lat="48.1818" lon="-4.23106">
        <ele>98.67</ele>
        <time>2016-11-10T15:54:33Z</time>
      </trkpt>
    </trkseg>
  </trk>
</gpx>